Archival Weather

Norman Y Mineta San Jose Intl

San Jose, California (KSJC)

Report from: Saturday, February 10, 2024 7:53 PM PST
Current time: Saturday, June 22, 2024 3:11 AM PDT

Current weather – Weather history – Daily summaries
Weather forecast

Temperature11.1°C (52.0°F)
Dew point7.2°C (45.0°F)
Winds 5 kts (2.6 m/s, 5.8 mph) North-Northwest (330°)
Visibility10 mi. (16.1 km)
Clouds Sky clear
Altimeter30.16 in.Hg (1021 mB)
Relative humidity77 %
Density altitude-584 ft. (-178 m)
Sea-level pressure102.1 kPa (1021 mB, 30.15 in.Hg)
Remarks Automated weather observing station with precipitation discriminator
Flight conditions Visual Meteorological Conditions
Raw dataKSJC 110353Z 33005KT 10SM CLR 11/07 A3016 RMK AO2 SLP211 T01110072
An error has occurred. This application may no longer respond until reloaded. Reload 🗙